Time;durP1;ratioP1;P1;durP2;ratioP2;P2;SDS_P1;SDS_P2;PMS_P1;PMS_P2;Temp;Humidity;BMP_temperature;BMP_pressure;BME280_temperature;BME280_humidity;BME280_pressure;Samples;Min_cycle;Max_cycle;Signal;HPM_P1;HPM_P2
2023/03/21 06:11:40;;;;;;;;;7.00;5.00;;;;;12.90;60.00;101112.38;6244268;22;45622;-71
2023/03/21 06:14:06;;;;;;;;;7.75;6.50;;;;;12.72;60.28;101086.25;6218265;22;45421;-70
2023/03/21 06:16:31;;;;;;;;;6.00;5.50;;;;;12.96;60.07;101130.03;6246060;22;45375;-72
2023/03/21 06:18:59;;;;;;;;;7.75;6.25;;;;;12.77;59.92;101098.53;6268342;22;45568;-71
2023/03/21 06:21:27;;;;;;;;;6.00;5.50;;;;;12.84;60.34;101117.97;6243012;22;45335;-71
2023/03/21 06:23:52;;;;;;;;;9.50;7.50;;;;;12.75;59.91;101084.34;6244735;22;45205;-70
2023/03/21 06:26:22;;;;;;;;;6.75;6.00;;;;;12.88;60.66;101113.34;6244976;22;45440;-71
2023/03/21 06:28:48;;;;;;;;;6.75;6.75;;;;;12.83;60.32;101105.50;6243577;22;45384;-71
2023/03/21 06:31:14;;;;;;;;;6.25;6.00;;;;;13.02;60.41;101147.72;6244713;22;45462;-71
2023/03/21 06:33:39;;;;;;;;;7.50;7.50;;;;;12.81;60.38;101123.41;6246144;22;45370;-70
2023/03/21 06:36:05;;;;;;;;;4.00;3.00;;;;;12.69;60.09;101110.47;6245619;22;45880;-70
2023/03/21 06:38:31;;;;;;;;;8.50;6.75;;;;;12.74;60.51;101113.84;6245422;22;45300;-70
2023/03/21 06:41:04;;;;;;;;;14.25;12.00;;;;;12.69;60.49;101103.31;6245517;22;45281;-71
2023/03/21 06:43:33;;;;;;;;;8.00;7.00;;;;;12.69;60.54;101103.31;6247399;22;45366;-70
2023/03/21 06:46:00;;;;;;;;;7.50;6.00;;;;;12.76;60.80;101115.56;6247494;22;45327;-70
2023/03/21 06:48:26;;;;;;;;;5.00;5.00;;;;;12.88;60.47;101119.63;6246579;22;45586;-70
2023/03/21 06:50:53;;;;;;;;;8.00;7.00;;;;;12.90;60.80;101125.78;6245325;22;45434;-70
2023/03/21 06:53:20;;;;;;;;;8.25;7.00;;;;;12.60;60.62;101079.53;6246566;22;45402;-74
2023/03/21 06:58:41;;;;;;;;;8.75;7.25;;;;;12.65;60.72;101090.09;6277995;22;45404;-83
2023/03/21 07:01:06;;;;;;;;;7.25;6.50;;;;;12.60;60.57;101085.75;6278024;22;45200;-82
2023/03/21 07:03:33;;;;;;;;;7.00;7.00;;;;;12.57;60.74;101076.97;6277314;22;45608;-82
2023/03/21 07:06:03;;;;;;;;;10.00;8.50;;;;;12.67;60.68;101090.91;6278103;22;45255;-82
2023/03/21 07:08:29;;;;;;;;;9.25;8.00;;;;;12.69;60.66;101097.94;6277682;22;45466;-82
2023/03/21 07:10:56;;;;;;;;;8.00;8.00;;;;;12.75;60.68;101103.09;6276782;22;45279;-82
2023/03/21 07:13:21;;;;;;;;;9.50;7.00;;;;;12.65;60.77;101082.06;6276488;22;45452;-82
2023/03/21 07:15:46;;;;;;;;;7.25;7.25;;;;;12.59;60.76;101077.78;6277620;22;45261;-81
2023/03/21 07:18:12;;;;;;;;;9.00;8.00;;;;;12.62;60.89;101083.03;6276879;22;45197;-80
2023/03/21 07:20:37;;;;;;;;;8.25;7.25;;;;;12.52;60.68;101071.75;6276866;22;45319;-78
2023/03/21 07:23:03;;;;;;;;;9.75;8.00;;;;;12.75;60.68;101094.19;6271691;22;45786;-79
2023/03/21 07:25:29;;;;;;;;;8.25;8.00;;;;;12.71;61.06;101088.06;6276862;22;45294;-79
2023/03/21 07:27:55;;;;;;;;;8.00;8.00;;;;;12.78;60.91;101103.00;6277847;22;45233;-79
2023/03/21 07:30:20;;;;;;;;;7.00;7.00;;;;;12.74;60.86;101101.34;6277947;22;45218;-78
2023/03/21 07:32:46;;;;;;;;;9.00;5.50;;;;;12.76;60.78;101098.59;6275346;22;45214;-79
2023/03/21 07:35:14;;;;;;;;;10.00;9.00;;;;;12.85;61.23;101119.72;6275772;22;46865;-79
2023/03/21 07:37:40;;;;;;;;;9.00;7.75;;;;;12.77;61.04;101101.22;6276279;22;45898;-79
2023/03/21 07:40:09;;;;;;;;;9.00;9.00;;;;;12.81;61.10;101107.34;6278480;22;45326;-79
2023/03/21 07:42:36;;;;;;;;;11.75;9.25;;;;;12.78;60.65;101103.00;6276544;22;45173;-79
2023/03/21 07:45:03;;;;;;;;;9.00;9.00;;;;;12.87;60.83;101109.81;6277746;22;45539;-79
2023/03/21 07:47:29;;;;;;;;;11.00;11.00;;;;;12.81;60.81;101095.75;6276930;22;45472;-79
2023/03/21 07:49:55;;;;;;;;;9.00;7.75;;;;;12.83;60.46;101108.19;6277778;22;45269;-79
2023/03/21 07:52:20;;;;;;;;;16.00;12.25;;;;;12.69;61.31;101081.00;6274862;22;45305;-79
2023/03/21 07:54:45;;;;;;;;;10.50;9.50;;;;;12.75;61.49;101070.94;6277749;22;46519;-79
2023/03/21 07:57:11;;;;;;;;;8.25;8.00;;;;;12.90;61.36;101090.94;6275159;22;52882;-79
2023/03/21 07:59:36;;;;;;;;;10.75;10.50;;;;;12.83;61.21;101065.31;6278169;22;45255;-79
2023/03/21 08:02:02;;;;;;;;;5.75;4.75;;;;;12.72;61.31;101035.38;6277667;22;45180;-78
2023/03/21 08:04:27;;;;;;;;;7.75;7.00;;;;;12.87;61.24;101063.41;6276896;22;45989;-77
2023/03/21 08:06:52;;;;;;;;;10.75;10.25;;;;;12.82;61.22;101074.28;6277629;22;46847;-78
2023/03/21 08:09:17;;;;;;;;;15.50;10.50;;;;;12.77;61.25;101058.38;6277999;22;45377;-78
2023/03/21 08:11:43;;;;;;;;;11.00;9.25;;;;;12.83;61.67;101080.50;6276317;22;45524;-78
2023/03/21 08:14:08;;;;;;;;;13.00;12.00;;;;;12.80;61.32;101086.88;6277458;22;45214;-78
2023/03/21 08:16:33;;;;;;;;;10.50;10.50;;;;;12.86;61.63;101115.22;6278160;22;45930;-78
2023/03/21 08:18:59;;;;;;;;;10.00;10.00;;;;;12.87;61.72;101133.94;6278555;22;45138;-78
2023/03/21 08:21:25;;;;;;;;;13.00;11.50;;;;;12.81;61.53;101120.75;6277592;22;45199;-78
2023/03/21 08:23:51;;;;;;;;;12.00;12.00;;;;;12.94;61.50;101138.13;6277668;22;45346;-78
2023/03/21 08:26:17;;;;;;;;;14.00;13.75;;;;;12.97;61.42;101150.56;6278344;22;45320;-78
2023/03/21 08:28:43;;;;;;;;;11.00;11.00;;;;;12.89;61.44;101131.19;6302761;22;45276;-78
2023/03/21 08:31:10;;;;;;;;;9.25;9.25;;;;;12.70;61.69;101102.38;6278293;22;45600;-81
2023/03/21 08:33:36;;;;;;;;;15.50;12.75;;;;;12.74;61.60;101109.38;6275918;22;47153;-81
2023/03/21 08:36:02;;;;;;;;;12.25;11.75;;;;;12.67;61.63;101093.59;6275996;22;45226;-81
2023/03/21 08:38:29;;;;;;;;;8.50;8.25;;;;;12.86;61.68;101105.38;6278712;22;45198;-81
2023/03/21 08:40:55;;;;;;;;;10.50;9.00;;;;;12.82;62.00;101081.44;6278438;22;45214;-81
2023/03/21 08:43:21;;;;;;;;;13.25;13.25;;;;;12.80;62.12;101065.44;6277700;22;45979;-81
2023/03/21 08:45:46;;;;;;;;;9.75;9.75;;;;;12.84;62.01;101072.41;6278226;22;45458;-81
2023/03/21 08:48:12;;;;;;;;;13.00;10.50;;;;;12.81;62.03;101059.13;6276650;22;45309;-81
2023/03/21 08:50:37;;;;;;;;;15.00;10.75;;;;;12.94;61.73;101086.34;6276060;22;55144;-81
2023/03/21 08:53:02;;;;;;;;;13.00;11.75;;;;;13.06;61.85;101118.03;6276057;22;46922;-81
2023/03/21 08:55:29;;;;;;;;;11.75;11.75;;;;;13.10;62.04;101130.41;6276559;22;45229;-81
2023/03/21 08:57:54;;;;;;;;;9.50;8.25;;;;;13.13;61.88;101134.78;6276565;22;45450;-81
2023/03/21 09:00:20;;;;;;;;;8.00;8.00;;;;;13.02;61.45;101107.53;6278117;22;45249;-81
2023/03/21 09:02:48;;;;;;;;;11.25;10.25;;;;;13.23;61.67;101135.31;6302597;22;47483;-81
2023/03/21 09:05:15;;;;;;;;;13.50;11.75;;;;;13.18;61.65;101100.66;6277721;22;45486;-81
2023/03/21 09:07:41;;;;;;;;;10.50;10.25;;;;;13.20;61.62;101108.63;6277724;22;45221;-81
2023/03/21 09:10:11;;;;;;;;;14.75;11.75;;;;;13.30;61.68;101127.00;6276613;22;45451;-81
2023/03/21 09:12:37;;;;;;;;;12.50;10.25;;;;;13.24;61.47;101118.31;6277262;22;48110;-81
2023/03/21 09:15:03;;;;;;;;;9.25;9.00;;;;;13.37;61.75;101130.34;6276103;22;45337;-81
2023/03/21 09:17:30;;;;;;;;;16.00;10.25;;;;;13.34;62.06;101122.41;6276651;22;45211;-81
2023/03/21 09:19:59;;;;;;;;;9.00;9.00;;;;;13.41;62.23;101120.38;6276299;22;45465;-82
2023/03/21 09:22:26;;;;;;;;;9.25;9.00;;;;;13.37;62.02;101116.09;6277637;22;46017;-81
2023/03/21 09:24:52;;;;;;;;;17.25;10.50;;;;;13.38;62.11;101123.19;6277220;22;45250;-82
2023/03/21 09:27:21;;;;;;;;;9.25;9.00;;;;;13.48;62.21;101125.47;6275779;22;45221;-81
2023/03/21 09:29:47;;;;;;;;;10.25;7.25;;;;;13.48;62.30;101120.09;6277728;22;45601;-81
2023/03/21 09:32:13;;;;;;;;;8.00;6.75;;;;;13.58;62.13;101125.09;6278036;22;45469;-81
2023/03/21 09:34:40;;;;;;;;;6.25;6.00;;;;;13.59;61.88;101118.81;6277271;22;49952;-81
2023/03/21 09:37:12;;;;;;;;;6.50;6.50;;;;;13.67;61.52;101133.66;6302065;22;45352;-81
2023/03/21 09:39:41;;;;;;;;;11.75;7.00;;;;;13.63;62.16;101115.06;6275934;22;45684;-81
2023/03/21 09:42:13;;;;;;;;;6.50;5.00;;;;;13.76;61.74;101132.41;6275918;22;47208;-81
2023/03/21 09:44:53;;;;;;;;;6.25;5.00;;;;;13.81;61.87;101137.59;6277361;22;45245;-81
2023/03/21 09:47:27;;;;;;;;;6.00;6.00;;;;;13.79;61.84;101126.06;6277932;22;45230;-81
2023/03/21 09:50:19;;;;;;;;;6.25;5.25;;;;;13.85;61.48;101131.19;6277778;22;45400;-82
2023/03/21 09:53:04;;;;;;;;;7.00;5.00;;;;;13.93;61.57;101136.25;6276959;22;46359;-82
2023/03/21 09:55:33;;;;;;;;;5.00;5.00;;;;;13.95;62.07;101135.25;6277098;22;45506;-81
2023/03/21 09:58:39;;;;;;;;;6.00;6.00;;;;;13.96;61.62;101128.06;6276866;22;45221;-82
2023/03/21 10:01:40;;;;;;;;;7.25;6.50;;;;;13.99;61.67;101127.97;6277659;22;45406;-81
2023/03/21 10:04:10;;;;;;;;;6.50;5.25;;;;;13.95;61.63;101113.78;6276883;22;45329;-81
2023/03/21 10:06:39;;;;;;;;;6.00;6.00;;;;;14.02;61.38;101120.66;6276436;22;45287;-82
2023/03/21 10:09:12;;;;;;;;;5.50;5.50;;;;;13.99;61.20;101104.66;6277824;22;45254;-82
2023/03/21 10:11:49;;;;;;;;;7.00;5.50;;;;;14.14;61.70;101127.31;6277103;22;45253;-82
2023/03/21 10:14:24;;;;;;;;;6.75;6.00;;;;;14.15;61.45;101130.88;6275566;22;47093;-82
2023/03/21 10:17:11;;;;;;;;;5.00;5.00;;;;;14.18;61.69;101138.81;6275230;22;45212;-82
2023/03/21 10:19:36;;;;;;;;;8.50;7.00;;;;;14.17;61.66;101135.25;6277697;22;45293;-82
2023/03/21 10:22:02;;;;;;;;;5.00;3.75;;;;;14.22;61.40;101137.75;6275532;22;45502;-81
2023/03/21 10:24:30;;;;;;;;;7.25;4.00;;;;;14.05;61.36;101112.47;6277145;22;45317;-81
2023/03/21 10:26:56;;;;;;;;;4.75;4.75;;;;;14.24;61.51;101146.63;6277258;22;45466;-82
2023/03/21 10:29:36;;;;;;;;;5.00;4.00;;;;;14.15;61.99;101121.03;6277412;22;45413;-76
2023/03/21 10:32:02;;;;;;;;;5.00;5.00;;;;;14.18;61.60;101120.91;6277146;22;45127;-87
2023/03/21 10:34:35;;;;;;;;;4.00;4.00;;;;;14.32;61.72;101132.88;6277250;22;45475;-86
2023/03/21 10:37:02;;;;;;;;;5.50;5.00;;;;;14.29;61.37;101120.44;6275376;22;45931;-82
2023/03/21 10:39:36;;;;;;;;;5.00;5.00;;;;;14.35;61.95;101124.66;6277938;22;45221;-82
2023/03/21 10:42:01;;;;;;;;;4.75;4.00;;;;;14.44;61.84;101135.03;6275511;22;45516;-82
2023/03/21 10:44:34;;;;;;;;;5.75;5.75;;;;;14.32;61.98;101095.28;6277340;22;46021;-82
2023/03/21 10:47:06;;;;;;;;;6.50;5.50;;;;;14.52;62.12;101116.78;6275740;22;45952;-82
2023/03/21 10:49:31;;;;;;;;;6.50;4.75;;;;;14.46;62.08;101090.19;6277769;22;45443;-82
2023/03/21 10:52:01;;;;;;;;;6.00;3.75;;;;;14.45;62.49;101083.09;6277253;22;45380;-82
2023/03/21 10:54:32;;;;;;;;;4.00;4.00;;;;;14.68;62.07;101111.66;6275241;22;48008;-82
2023/03/21 10:57:03;;;;;;;;;5.75;5.75;;;;;14.63;61.98;101108.28;6275800;22;45306;-82
2023/03/21 10:59:39;;;;;;;;;4.00;4.00;;;;;14.75;62.22;101110.47;6275749;22;45199;-82
2023/03/21 11:02:11;;;;;;;;;4.00;4.00;;;;;14.71;61.70;101091.84;6275392;22;45364;-82
2023/03/21 11:04:37;;;;;;;;;5.75;4.25;;;;;14.70;61.55;101085.59;6274999;22;48023;-82
2023/03/21 11:07:08;;;;;;;;;5.75;4.00;;;;;14.91;61.57;101117.84;6275423;22;45841;-82
2023/03/21 11:09:48;;;;;;;;;5.00;5.00;;;;;14.95;61.56;101112.25;6275572;22;45429;-82
2023/03/21 11:12:17;;;;;;;;;3.00;3.00;;;;;14.97;61.75;101118.44;6275383;22;45524;-82
2023/03/21 11:14:45;;;;;;;;;5.00;5.00;;;;;15.04;61.55;101118.16;6275758;22;47413;-82
2023/03/21 11:17:19;;;;;;;;;4.00;4.00;;;;;14.96;61.53;101097.84;6276959;22;45439;-82
2023/03/21 11:19:51;;;;;;;;;7.50;6.00;;;;;15.10;61.39;101102.63;6275799;22;45251;-82
2023/03/21 11:22:22;;;;;;;;;5.00;4.75;;;;;15.07;61.28;101093.81;6275112;22;45334;-82
2023/03/21 11:24:56;;;;;;;;;4.00;4.00;;;;;15.17;61.57;101109.47;6276958;22;45352;-82
2023/03/21 11:27:21;;;;;;;;;4.00;4.00;;;;;15.12;61.06;101091.81;6274949;22;45375;-82
2023/03/21 11:29:50;;;;;;;;;5.00;5.00;;;;;15.24;61.77;101115.44;6276656;22;45222;-83
2023/03/21 11:32:21;;;;;;;;;7.75;6.75;;;;;15.18;61.72;101097.78;6276887;22;45363;-82
2023/03/21 11:34:59;;;;;;;;;3.75;3.75;;;;;15.20;61.57;101089.59;6276548;22;47243;-82
2023/03/21 11:37:32;;;;;;;;;4.00;4.00;;;;;15.24;61.61;101087.69;6276545;22;45457;-83
2023/03/21 11:40:31;;;;;;;;;4.50;4.50;;;;;15.38;61.57;101104.94;6278954;22;45202;-82
2023/03/21 11:42:59;;;;;;;;;3.50;3.50;;;;;15.44;61.93;101101.06;6276124;22;45501;-82
2023/03/21 11:45:31;;;;;;;;;3.25;3.25;;;;;15.37;61.78;101089.72;6276368;22;47640;-82
2023/03/21 11:47:59;;;;;;;;;5.50;5.25;;;;;15.37;61.48;101080.78;6278362;22;45336;-83
2023/03/21 11:50:38;;;;;;;;;4.00;4.00;;;;;15.51;61.42;101089.06;6277150;22;45280;-83
2023/03/21 11:53:07;;;;;;;;;8.00;7.00;;;;;15.63;61.33;101100.19;6278466;22;45218;-83
2023/03/21 11:55:46;;;;;;;;;4.75;4.75;;;;;15.59;61.42;101085.16;6276525;22;47062;-83
2023/03/21 11:58:20;;;;;;;;;6.00;6.00;;;;;15.69;61.43;101103.47;6277896;22;45238;-83
2023/03/21 12:01:22;;;;;;;;;5.75;5.75;;;;;15.72;61.45;101102.44;6278404;22;45271;-82
2023/03/21 12:04:00;;;;;;;;;4.50;4.00;;;;;15.65;61.14;101092.91;6276070;22;45516;-82
2023/03/21 12:06:33;;;;;;;;;8.00;5.00;;;;;15.73;61.64;101101.47;6277481;22;45400;-81
2023/03/21 12:09:02;;;;;;;;;5.00;5.00;;;;;15.76;61.88;101101.38;6274946;22;45322;-81
2023/03/21 12:11:40;;;;;;;;;5.50;4.00;;;;;15.79;61.54;101100.38;6278025;22;45242;-81
2023/03/21 12:14:11;;;;;;;;;7.00;6.25;;;;;15.79;61.63;101098.53;6275072;22;45429;-81
2023/03/21 12:16:51;;;;;;;;;6.50;5.00;;;;;15.83;61.51;101100.13;6276803;22;45357;-82
2023/03/21 12:19:37;;;;;;;;;5.00;5.00;;;;;15.85;61.56;101100.91;6277930;22;45297;-82
2023/03/21 12:22:09;;;;;;;;;11.75;11.75;;;;;15.87;61.49;101098.16;6277204;22;45384;-86
2023/03/21 12:24:54;;;;;;;;;7.50;5.50;;;;;15.87;61.33;101107.13;6275628;22;45433;-83
2023/03/21 12:27:40;;;;;;;;;8.75;7.75;;;;;15.89;61.40;101093.59;6276691;22;46544;-83
2023/03/21 12:30:22;;;;;;;;;5.50;4.00;;;;;15.84;61.14;101074.09;6276357;22;45189;-82
2023/03/21 12:32:51;;;;;;;;;5.00;5.00;;;;;15.94;61.17;101080.78;6277132;22;45130;-82
2023/03/21 12:35:39;;;;;;;;;9.00;7.00;;;;;15.97;61.49;101068.97;6277011;22;45204;-85
2023/03/21 12:38:16;;;;;;;;;6.50;6.50;;;;;15.96;61.23;101062.72;6275268;22;45754;-83
2023/03/21 12:41:19;;;;;;;;;7.00;7.00;;;;;15.99;61.51;101064.34;6275437;22;45223;-83
2023/03/21 12:43:53;;;;;;;;;5.75;5.75;;;;;15.97;61.49;101051.00;6276478;22;45269;-83
2023/03/21 12:46:37;;;;;;;;;8.00;5.50;;;;;15.90;61.74;101039.66;6276209;22;45195;-83
2023/03/21 12:49:23;;;;;;;;;7.25;7.00;;;;;16.00;61.71;101045.44;6273345;22;45364;-83
2023/03/21 12:51:54;;;;;;;;;4.00;3.00;;;;;15.99;61.75;101051.78;6272289;22;45682;-83
2023/03/21 12:54:30;;;;;;;;;7.00;6.25;;;;;15.87;61.42;101026.34;6272084;22;45345;-83
2023/03/21 12:57:11;;;;;;;;;5.00;5.00;;;;;16.00;61.87;101041.88;6271819;22;45336;-83
2023/03/21 12:59:45;;;;;;;;;6.25;6.00;;;;;15.97;61.70;101031.25;6273731;22;45340;-83
2023/03/21 13:02:25;;;;;;;;;6.00;6.00;;;;;15.98;61.89;101027.63;6273693;22;45352;-83
2023/03/21 13:05:17;;;;;;;;;4.00;4.00;;;;;16.06;61.65;101042.44;6272115;22;45311;-83
2023/03/21 13:07:47;;;;;;;;;4.50;4.50;;;;;15.90;61.74;101003.78;6272161;22;45729;-83
2023/03/21 13:10:23;;;;;;;;;5.75;4.75;;;;;15.93;61.71;101009.88;6273970;22;46143;-84
2023/03/21 13:13:02;;;;;;;;;4.00;3.25;;;;;16.12;61.68;101025.09;6273526;22;45336;-83
2023/03/21 13:15:43;;;;;;;;;7.00;4.25;;;;;16.16;61.75;101039.31;6275065;22;45581;-83
2023/03/21 13:18:36;;;;;;;;;4.50;4.50;;;;;16.18;61.84;101030.19;6275129;22;45558;-83
2023/03/21 13:21:14;;;;;;;;;3.75;3.75;;;;;16.19;61.70;101028.34;6275194;22;47278;-83
2023/03/21 13:23:39;;;;;;;;;4.00;4.00;;;;;16.10;61.56;101002.75;6272232;22;46088;-84
2023/03/21 13:26:11;;;;;;;;;4.75;3.25;;;;;16.22;61.47;101020.13;6274049;22;45357;-82
2023/03/21 13:28:39;;;;;;;;;2.75;2.75;;;;;16.06;61.69;100995.81;6298223;22;45429;-83
2023/03/21 13:31:37;;;;;;;;;3.50;3.50;;;;;16.25;61.15;101028.91;6272844;22;48489;-83
2023/03/21 13:34:02;;;;;;;;;4.75;4.50;;;;;16.15;60.99;101022.25;6265269;22;45265;-83
2023/03/21 13:36:30;;;;;;;;;4.00;4.00;;;;;16.19;60.97;101020.25;6273862;22;46118;-82
2023/03/21 13:39:05;;;;;;;;;3.00;2.00;;;;;16.19;61.02;101010.38;6272207;22;45365;-82
2023/03/21 13:41:35;;;;;;;;;4.50;4.00;;;;;16.17;60.98;100995.25;6272880;22;47989;-81
2023/03/21 13:44:01;;;;;;;;;2.50;2.50;;;;;16.19;60.87;100996.91;6273602;22;45439;-80
2023/03/21 13:46:30;;;;;;;;;3.00;3.00;;;;;16.32;60.94;101004.34;6276471;22;45502;-81
2023/03/21 13:48:58;;;;;;;;;4.00;2.00;;;;;16.36;60.97;101008.66;6266237;22;46386;-81
2023/03/21 13:51:35;;;;;;;;;3.00;3.00;;;;;16.38;60.86;101004.03;6273497;22;45250;-81
2023/03/21 13:54:02;;;;;;;;;3.25;3.25;;;;;16.20;61.52;100966.31;6273972;22;45677;-82
2023/03/21 13:56:29;;;;;;;;;3.00;3.00;;;;;16.42;61.33;100998.41;6276095;22;45301;-81
2023/03/21 13:59:02;;;;;;;;;5.00;4.25;;;;;16.29;61.00;100971.25;6274017;22;45382;-81
2023/03/21 14:01:34;;;;;;;;;6.00;3.00;;;;;16.28;60.77;100961.41;6274344;22;47082;-81
2023/03/21 14:04:17;;;;;;;;;3.00;3.00;;;;;16.31;60.75;100968.47;6273532;22;45249;-82
2023/03/21 14:06:56;;;;;;;;;3.75;3.75;;;;;16.38;60.59;100969.88;6276030;22;45392;-81
2023/03/21 14:09:36;;;;;;;;;4.00;3.00;;;;;16.40;60.52;100981.44;6276427;22;45251;-81
2023/03/21 14:12:05;;;;;;;;;4.00;3.00;;;;;16.46;60.83;100982.94;6277092;22;46051;-81
2023/03/21 14:14:39;;;;;;;;;4.75;4.00;;;;;16.42;60.88;100976.84;6275225;22;45230;-82
2023/03/21 14:17:31;;;;;;;;;3.00;3.00;;;;;16.39;60.69;100971.63;6275448;22;45274;-82
2023/03/21 14:20:22;;;;;;;;;2.75;2.75;;;;;16.43;60.96;100980.41;6275528;22;45365;-82
2023/03/21 14:22:48;;;;;;;;;5.00;4.00;;;;;16.43;61.12;100985.81;6275782;22;47306;-83
2023/03/21 14:25:17;;;;;;;;;5.00;5.00;;;;;16.42;60.95;100986.75;6276371;22;45244;-83
2023/03/21 14:27:47;;;;;;;;;3.00;3.00;;;;;16.41;60.98;100991.28;6276022;22;45305;-84
2023/03/21 14:30:40;;;;;;;;;4.25;3.75;;;;;16.43;61.10;101000.13;6275189;22;45256;-83
2023/03/21 14:33:19;;;;;;;;;4.75;4.75;;;;;16.40;60.89;100988.66;6275961;22;45356;-83
2023/03/21 14:35:46;;;;;;;;;3.50;3.00;;;;;16.44;60.63;101009.13;6301145;22;45111;-83
2023/03/21 14:38:25;;;;;;;;;4.50;3.75;;;;;16.34;61.06;100986.28;6275163;22;45212;-83
2023/03/21 14:40:53;;;;;;;;;2.75;2.75;;;;;16.42;60.72;100995.72;6275429;22;45474;-82
2023/03/21 14:43:21;;;;;;;;;5.00;5.00;;;;;16.42;60.97;100997.53;6276807;22;45204;-82
2023/03/21 14:45:49;;;;;;;;;3.50;3.00;;;;;16.37;60.84;100992.41;6275496;22;45504;-83
2023/03/21 14:48:15;;;;;;;;;4.75;3.00;;;;;16.37;61.04;100991.50;6277022;22;45209;-82
2023/03/21 14:50:47;;;;;;;;;3.50;3.50;;;;;16.24;61.13;100970.63;6277024;22;45306;-82
2023/03/21 14:53:19;;;;;;;;;2.25;2.00;;;;;16.34;60.87;100983.59;6265241;22;47106;-82
2023/03/21 14:55:52;;;;;;;;;4.00;3.00;;;;;16.34;60.84;100968.31;6274839;22;45239;-82
2023/03/21 14:58:18;;;;;;;;;4.00;4.00;;;;;16.35;60.97;100971.88;6274091;22;45313;-82
2023/03/21 15:00:48;;;;;;;;;2.00;2.00;;;;;16.43;60.73;100980.41;6275399;22;45250;-82
2023/03/21 15:03:16;;;;;;;;;3.00;3.00;;;;;16.43;61.19;100980.41;6273938;22;48231;-82
2023/03/21 15:05:41;;;;;;;;;3.25;3.25;;;;;16.24;60.89;100948.22;6276375;22;45291;-82
2023/03/21 15:08:16;;;;;;;;;5.50;3.75;;;;;16.42;60.84;100981.34;6276191;22;45528;-82
2023/03/21 15:10:52;;;;;;;;;2.75;2.75;;;;;16.26;60.34;100949.84;6274397;22;45365;-82
2023/03/21 15:13:21;;;;;;;;;2.25;2.25;;;;;16.29;60.11;100962.31;6274860;22;47015;-82
2023/03/21 15:15:47;;;;;;;;;2.00;2.00;;;;;16.19;60.30;100943.06;6276059;22;45484;-81
2023/03/21 15:18:21;;;;;;;;;3.50;2.50;;;;;16.38;60.17;100975.25;6276608;22;45364;-81
2023/03/21 15:20:49;;;;;;;;;3.50;3.50;;;;;16.39;60.01;100986.91;6274617;22;45176;-81
2023/03/21 15:23:35;;;;;;;;;6.50;4.00;;;;;16.37;59.99;100978.94;6272607;22;47305;-81
2023/03/21 15:26:02;;;;;;;;;2.75;2.75;;;;;16.39;60.25;100989.59;6276293;22;45276;-82
2023/03/21 15:28:27;;;;;;;;;1.50;1.50;;;;;16.37;59.88;100978.03;6274448;22;45235;-82
2023/03/21 15:30:53;;;;;;;;;2.00;1.00;;;;;16.43;59.75;100966.94;6275030;22;45156;-82
2023/03/21 15:33:22;;;;;;;;;3.75;2.75;;;;;16.39;58.99;100955.47;6273515;22;47385;-81
2023/03/21 15:35:55;;;;;;;;;2.75;2.00;;;;;16.36;59.00;100944.84;6274368;22;45522;-81
2023/03/21 15:38:29;;;;;;;;;1.75;1.00;;;;;16.48;58.74;100959.47;6277110;22;45363;-81
2023/03/21 15:41:19;;;;;;;;;1.00;1.00;;;;;16.47;58.92;100968.50;6277029;22;45487;-82
2023/03/21 15:43:46;;;;;;;;;1.00;1.00;;;;;16.43;58.96;100958.88;6274652;22;48142;-81
2023/03/21 15:46:15;;;;;;;;;3.00;2.00;;;;;16.47;58.65;100955.94;6276407;22;45252;-82
2023/03/21 15:48:41;;;;;;;;;3.00;3.00;;;;;16.35;58.41;100944.94;6274894;22;45212;-82
2023/03/21 15:51:15;;;;;;;;;2.00;2.00;;;;;16.42;58.42;100947.22;6276881;22;45695;-82
2023/03/21 15:53:42;;;;;;;;;3.00;3.00;;;;;16.55;58.19;100962.72;6273618;22;48325;-81
2023/03/21 15:56:15;;;;;;;;;3.75;3.25;;;;;16.48;57.91;100956.78;6275028;22;45465;-81
2023/03/21 15:58:46;;;;;;;;;4.00;2.75;;;;;16.43;58.10;100934.63;6276381;22;45621;-81
2023/03/21 16:01:18;;;;;;;;;3.00;3.00;;;;;16.40;57.64;100926.69;6276908;22;45326;-81
2023/03/21 16:03:46;;;;;;;;;3.75;3.75;;;;;16.41;57.44;100931.13;6275795;22;47903;-81
2023/03/21 16:06:13;;;;;;;;;2.00;2.00;;;;;16.42;57.63;100920.28;6276742;22;45491;-81
2023/03/21 16:09:09;;;;;;;;;2.00;2.00;;;;;16.50;57.57;100946.78;6277810;22;45186;-81
2023/03/21 16:11:43;;;;;;;;;2.00;2.00;;;;;16.53;57.76;100943.06;6276044;22;45298;-81
2023/03/21 16:14:08;;;;;;;;;4.00;2.75;;;;;16.38;57.59;100923.22;6278005;22;45617;-81
2023/03/21 16:16:34;;;;;;;;;5.00;5.00;;;;;16.48;57.91;100946.88;6269532;22;45436;-82
2023/03/21 16:19:02;;;;;;;;;3.00;3.00;;;;;16.46;57.68;100939.84;6274067;22;45274;-81
2023/03/21 16:21:30;;;;;;;;;3.00;3.00;;;;;16.56;57.85;100959.09;6275057;22;46165;-80
2023/03/21 16:23:57;;;;;;;;;4.00;4.00;;;;;16.59;57.83;100950.81;6276604;22;46297;-80
2023/03/21 16:26:31;;;;;;;;;4.75;4.75;;;;;16.60;58.08;100944.47;6276952;22;45246;-81
2023/03/21 16:28:57;;;;;;;;;3.25;3.25;;;;;16.59;58.00;100942.72;6277281;22;45285;-82
2023/03/21 16:31:25;;;;;;;;;3.00;3.00;;;;;16.61;58.15;100938.16;6277210;22;45195;-81
2023/03/21 16:33:50;;;;;;;;;3.00;3.00;;;;;16.52;58.15;100922.47;6274126;22;47087;-80
2023/03/21 16:36:28;;;;;;;;;4.50;3.25;;;;;16.68;58.32;100958.41;6277215;22;45325;-80
2023/03/21 16:38:54;;;;;;;;;4.50;4.50;;;;;16.62;58.11;100946.16;6277125;22;45300;-81
2023/03/21 16:41:25;;;;;;;;;6.00;4.75;;;;;16.60;58.26;100942.63;6277013;22;45324;-81
2023/03/21 16:43:51;;;;;;;;;5.00;5.00;;;;;16.57;58.25;100950.03;6276816;22;45497;-80
2023/03/21 16:46:23;;;;;;;;;4.00;4.00;;;;;16.51;58.27;100940.47;6277292;22;45239;-80
2023/03/21 16:48:54;;;;;;;;;3.00;3.00;;;;;16.64;58.38;100954.16;6275040;22;45227;-80
2023/03/21 16:51:25;;;;;;;;;3.75;3.75;;;;;16.64;58.01;100956.84;6277061;22;45290;-80
2023/03/21 16:53:52;;;;;;;;;4.00;3.00;;;;;16.63;58.20;100961.34;6274861;22;47509;-80
2023/03/21 16:56:21;;;;;;;;;4.50;3.75;;;;;16.49;58.40;100937.84;6275523;22;45678;-80
2023/03/21 16:58:47;;;;;;;;;3.75;3.75;;;;;16.60;58.22;100950.72;6276866;22;45416;-80
2023/03/21 17:01:15;;;;;;;;;5.00;5.00;;;;;16.47;58.33;100939.75;6276755;22;45282;-80
2023/03/21 17:03:41;;;;;;;;;6.00;4.25;;;;;16.57;58.38;100958.09;6275887;22;46101;-80
2023/03/21 17:06:12;;;;;;;;;4.25;4.25;;;;;16.48;58.25;100951.41;6275284;22;45473;-80
2023/03/21 17:08:38;;;;;;;;;5.00;5.00;;;;;16.43;58.35;100934.63;6275115;22;45283;-80
2023/03/21 17:11:05;;;;;;;;;8.50;6.75;;;;;16.46;58.66;100956.00;6277290;22;45122;-80
2023/03/21 17:13:30;;;;;;;;;6.75;6.75;;;;;16.47;58.84;100966.72;6274769;22;47335;-81
2023/03/21 17:15:56;;;;;;;;;5.25;5.25;;;;;16.37;58.72;100943.91;6276597;22;45253;-81
2023/03/21 17:18:21;;;;;;;;;5.00;5.00;;;;;16.41;59.34;100950.00;6275237;22;45364;-81
2023/03/21 17:20:46;;;;;;;;;6.25;5.00;;;;;16.35;59.11;100947.63;6275547;22;45437;-80
2023/03/21 17:23:12;;;;;;;;;5.00;4.25;;;;;16.43;59.09;100970.50;6277196;22;45412;-80
2023/03/21 17:25:37;;;;;;;;;5.25;5.25;;;;;16.37;59.19;100953.78;6277203;22;47500;-80
2023/03/21 17:28:02;;;;;;;;;7.00;6.00;;;;;16.35;59.28;100955.69;6277045;22;45246;-80
2023/03/21 17:30:33;;;;;;;;;4.00;4.00;;;;;16.40;59.18;100959.88;6276788;22;49064;-80
2023/03/21 17:32:59;;;;;;;;;5.00;5.00;;;;;16.36;59.17;100949.38;6275208;22;47415;-80
2023/03/21 17:35:25;;;;;;;;;3.00;3.00;;;;;16.38;59.34;100951.03;6277024;22;45371;-80
2023/03/21 17:37:51;;;;;;;;;5.25;4.25;;;;;16.31;59.18;100944.22;6277513;22;45238;-80
2023/03/21 17:40:28;;;;;;;;;9.00;7.00;;;;;16.33;59.33;100957.63;6276678;22;45216;-80
2023/03/21 17:42:54;;;;;;;;;6.25;5.00;;;;;16.28;59.43;100949.78;6275413;22;47272;-80
2023/03/21 17:45:20;;;;;;;;;5.50;5.50;;;;;16.26;59.66;100936.38;6277074;22;45314;-80
2023/03/21 17:47:46;;;;;;;;;6.00;6.00;;;;;16.33;59.61;100938.75;6277070;22;45456;-81
2023/03/21 17:50:15;;;;;;;;;7.00;7.00;;;;;16.34;59.67;100935.97;6275146;22;45279;-81
2023/03/21 17:52:40;;;;;;;;;8.75;8.00;;;;;16.22;59.85;100913.28;6276052;22;45126;-81
2023/03/21 17:55:06;;;;;;;;;6.75;6.75;;;;;16.34;59.68;100938.69;6277089;22;45123;-81